Time;durP1;ratioP1;P1;durP2;ratioP2;P2;SDS_P1;SDS_P2;PMS_P1;PMS_P2;Temp;Humidity;BMP_temperature;BMP_pressure;BME280_temperature;BME280_humidity;BME280_pressure;Samples;Min_cycle;Max_cycle;Signal;HPM_P1;HPM_P2
2022/10/07 00:00:50;;;;;;;14.93;9.88;;;4.70;99.90;;;;;;4975602;28;20140;-72
2022/10/07 00:03:17;;;;;;;16.98;9.38;;;4.50;99.90;;;;;;4977730;28;20035;-72
2022/10/07 00:05:44;;;;;;;17.50;9.55;;;4.60;99.90;;;;;;4955602;28;20097;-73
2022/10/07 00:08:10;;;;;;;17.60;9.30;;;4.70;99.90;;;;;;4982052;28;20050;-73
2022/10/07 00:10:39;;;;;;;19.38;9.98;;;4.50;99.90;;;;;;4979688;28;20042;-74
2022/10/07 00:13:08;;;;;;;12.75;9.10;;;4.40;99.90;;;;;;4989247;28;20046;-73
2022/10/07 00:15:35;;;;;;;15.25;9.82;;;4.40;99.90;;;;;;4978008;28;20516;-74
2022/10/07 00:18:02;;;;;;;20.48;10.02;;;4.30;99.90;;;;;;4980644;28;20053;-74
2022/10/07 00:20:29;;;;;;;19.70;11.27;;;4.30;99.90;;;;;;4962628;28;20433;-74
2022/10/07 00:22:55;;;;;;;15.93;10.00;;;4.40;99.90;;;;;;4973782;28;20046;-73
2022/10/07 00:25:22;;;;;;;20.08;9.65;;;4.60;99.90;;;;;;4975908;28;20054;-73
2022/10/07 00:27:49;;;;;;;15.07;8.98;;;4.60;99.90;;;;;;4975411;28;20121;-73
2022/10/07 00:30:16;;;;;;;15.65;9.10;;;4.60;99.90;;;;;;4980845;28;20136;-74
2022/10/07 00:32:43;;;;;;;12.85;9.38;;;4.60;99.90;;;;;;4972955;28;20400;-72
2022/10/07 00:35:10;;;;;;;19.45;9.52;;;4.40;99.90;;;;;;4961799;28;20039;-68
2022/10/07 00:37:41;;;;;;;14.25;9.57;;;4.40;99.90;;;;;;4977162;28;20065;-73
2022/10/07 00:40:11;;;;;;;17.02;10.15;;;4.40;99.90;;;;;;4973342;28;20046;-72
2022/10/07 00:42:39;;;;;;;14.18;9.98;;;4.30;99.90;;;;;;5018182;23;20060;-79
2022/10/07 00:45:18;;;;;;;30.52;10.60;;;4.30;99.90;;;;;;4987200;28;20050;-79
2022/10/07 00:47:47;;;;;;;24.77;11.55;;;4.20;99.90;;;;;;5007186;28;20068;-81
2022/10/07 00:50:26;;;;;;;18.45;10.68;;;4.10;99.90;;;;;;4989427;28;20060;-80
2022/10/07 00:52:58;;;;;;;20.75;13.57;;;4.20;99.90;;;;;;5019497;28;20117;-81
2022/10/07 00:55:27;;;;;;;19.85;10.95;;;4.40;99.90;;;;;;4990935;28;20115;-81
2022/10/07 00:57:58;;;;;;;18.52;10.38;;;4.40;99.90;;;;;;4993803;28;20137;-81
2022/10/07 01:00:25;;;;;;;15.73;10.20;;;4.20;99.90;;;;;;5004930;28;20117;-81
2022/10/07 01:02:51;;;;;;;14.65;10.00;;;4.30;99.90;;;;;;4998980;28;20128;-81
2022/10/07 01:05:19;;;;;;;19.08;10.90;;;4.30;99.90;;;;;;4984751;28;20050;-81
2022/10/07 01:07:48;;;;;;;13.10;9.82;;;4.40;99.90;;;;;;4989373;28;20085;-80
2022/10/07 01:10:18;;;;;;;20.30;10.30;;;4.30;99.90;;;;;;4990343;28;20072;-81
2022/10/07 01:13:13;;;;;;;15.05;9.23;;;4.30;99.90;;;;;;4987820;28;20078;-79
2022/10/07 01:15:55;;;;;;;16.25;9.98;;;4.10;99.90;;;;;;4988508;28;20050;-80
2022/10/07 01:18:48;;;;;;;15.55;9.98;;;4.10;99.90;;;;;;4984785;28;20046;-81
2022/10/07 01:21:38;;;;;;;14.65;10.18;;;3.90;99.90;;;;;;5020377;28;20073;-81
2022/10/07 01:24:21;;;;;;;16.92;10.45;;;3.90;99.90;;;;;;4986746;28;20068;-80
2022/10/07 01:26:51;;;;;;;17.15;10.90;;;3.90;99.90;;;;;;5003806;28;20582;-80
2022/10/07 01:29:29;;;;;;;11.45;10.23;;;3.80;99.90;;;;;;4993659;28;20093;-81
2022/10/07 01:32:19;;;;;;;12.57;11.27;;;3.70;99.90;;;;;;4985941;28;20061;-78
2022/10/07 01:34:47;;;;;;;15.25;11.57;;;3.70;99.90;;;;;;4998248;28;20214;-79
2022/10/07 01:37:16;;;;;;;15.48;11.70;;;3.70;99.90;;;;;;5002081;28;20054;-78
2022/10/07 01:39:48;;;;;;;15.63;11.50;;;3.80;99.90;;;;;;4984581;28;20054;-80
2022/10/07 01:42:17;;;;;;;14.75;11.05;;;3.90;99.90;;;;;;5000926;28;20474;-78
2022/10/07 01:44:48;;;;;;;21.20;11.13;;;4.00;99.90;;;;;;4985328;28;20084;-78
2022/10/07 01:47:15;;;;;;;15.82;10.35;;;4.00;99.90;;;;;;4976030;28;20105;-78
2022/10/07 01:49:42;;;;;;;18.50;10.32;;;3.90;99.90;;;;;;5013712;28;20045;-79
2022/10/07 01:52:29;;;;;;;14.80;9.90;;;3.80;99.90;;;;;;5001371;28;20550;-79
2022/10/07 01:55:09;;;;;;;12.05;9.25;;;3.90;99.90;;;;;;4971942;28;20498;-80
2022/10/07 01:57:39;;;;;;;15.70;9.80;;;3.90;99.90;;;;;;4983762;28;20062;-80
2022/10/07 02:00:11;;;;;;;15.27;9.95;;;3.70;99.90;;;;;;5000217;28;20072;-78
2022/10/07 02:02:51;;;;;;;17.55;9.63;;;3.70;99.90;;;;;;4993390;28;20050;-77
2022/10/07 02:05:37;;;;;;;16.30;10.35;;;3.60;99.90;;;;;;4972554;28;20042;-79
2022/10/07 02:08:12;;;;;;;17.88;10.35;;;3.60;99.90;;;;;;5000553;28;20053;-78
2022/10/07 02:11:02;;;;;;;12.75;11.40;;;3.50;99.90;;;;;;4983406;28;20045;-79
2022/10/07 02:13:51;;;;;;;14.30;11.15;;;3.60;99.90;;;;;;4977807;28;20062;-80
2022/10/07 02:16:22;;;;;;;12.13;10.70;;;3.50;99.90;;;;;;4998875;28;20402;-80
2022/10/07 02:18:51;;;;;;;11.73;10.52;;;3.50;99.90;;;;;;4965825;28;20073;-78
2022/10/07 02:21:28;;;;;;;18.92;11.80;;;3.50;99.90;;;;;;4969829;28;20512;-79
2022/10/07 02:23:56;;;;;;;16.50;10.57;;;3.50;99.90;;;;;;4993196;28;20051;-80
2022/10/07 02:26:27;;;;;;;15.07;11.07;;;3.50;99.90;;;;;;4983728;28;20084;-80
2022/10/07 02:28:55;;;;;;;11.70;10.32;;;3.50;99.90;;;;;;4999822;28;20058;-78
2022/10/07 02:31:27;;;;;;;12.40;11.10;;;3.40;99.90;;;;;;4987323;28;20076;-79
2022/10/07 02:33:56;;;;;;;15.25;10.43;;;3.30;99.90;;;;;;4965902;28;20062;-80
2022/10/07 02:36:34;;;;;;;12.27;11.15;;;3.30;99.90;;;;;;4998073;28;20133;-78
2022/10/07 02:39:03;;;;;;;21.80;12.07;;;3.40;99.90;;;;;;5013524;28;20137;-79
2022/10/07 02:41:40;;;;;;;12.05;10.90;;;3.30;99.90;;;;;;4984612;28;20069;-79
2022/10/07 02:44:20;;;;;;;14.93;11.35;;;3.30;99.90;;;;;;5008020;28;20057;-79
2022/10/07 02:46:57;;;;;;;22.05;11.57;;;3.30;99.90;;;;;;4982621;28;20060;-78
2022/10/07 02:49:27;;;;;;;12.25;10.95;;;3.30;99.90;;;;;;5000220;28;20483;-78
2022/10/07 02:51:58;;;;;;;11.73;10.50;;;3.30;99.90;;;;;;4998074;28;20060;-78
2022/10/07 02:54:33;;;;;;;14.02;11.20;;;3.40;99.90;;;;;;4995676;28;20042;-78
2022/10/07 02:57:01;;;;;;;13.98;10.73;;;3.50;99.90;;;;;;4981494;28;20038;-79
2022/10/07 02:59:29;;;;;;;13.35;10.77;;;3.40;99.90;;;;;;4994321;28;20133;-78
2022/10/07 03:01:59;;;;;;;11.00;9.85;;;3.40;99.90;;;;;;4982059;28;20049;-78
2022/10/07 03:04:26;;;;;;;14.20;10.70;;;3.40;99.90;;;;;;4983235;28;20049;-79
2022/10/07 03:06:53;;;;;;;20.05;11.25;;;3.40;99.90;;;;;;4976436;28;20111;-78
2022/10/07 03:09:22;;;;;;;19.35;11.50;;;3.60;99.90;;;;;;5003126;28;20150;-78
2022/10/07 03:11:49;;;;;;;21.60;12.15;;;3.40;99.90;;;;;;4980815;28;20058;-77
2022/10/07 03:14:16;;;;;;;18.05;11.00;;;3.40;99.90;;;;;;4971590;28;20042;-78
2022/10/07 03:16:46;;;;;;;12.52;11.40;;;3.50;99.90;;;;;;4985162;28;20042;-78
2022/10/07 03:19:13;;;;;;;14.18;10.43;;;3.50;99.90;;;;;;4983489;28;20042;-79
2022/10/07 03:22:01;;;;;;;19.92;11.18;;;3.50;99.90;;;;;;4997225;28;20105;-78
2022/10/07 03:24:30;;;;;;;12.60;10.40;;;3.30;99.90;;;;;;4984552;28;20057;-78
2022/10/07 03:26:56;;;;;;;16.90;11.15;;;3.30;99.90;;;;;;4984606;28;20033;-79
2022/10/07 03:29:25;;;;;;;14.98;10.85;;;3.20;99.90;;;;;;4989703;28;20046;-79
2022/10/07 03:31:54;;;;;;;15.27;11.30;;;3.20;99.90;;;;;;4979634;28;20438;-78
2022/10/07 03:34:22;;;;;;;12.90;10.50;;;3.20;99.90;;;;;;4982163;28;20056;-78
2022/10/07 03:36:49;;;;;;;11.90;10.82;;;3.20;99.90;;;;;;4989251;28;20104;-79
2022/10/07 03:39:16;;;;;;;14.38;11.80;;;3.10;99.90;;;;;;4985021;28;20042;-79
2022/10/07 03:41:42;;;;;;;17.95;12.48;;;3.00;99.90;;;;;;4963518;28;20046;-79
2022/10/07 03:44:09;;;;;;;13.68;12.20;;;3.10;99.90;;;;;;5003673;28;20053;-78
2022/10/07 03:46:36;;;;;;;13.73;12.52;;;3.00;99.90;;;;;;4982840;28;20150;-78
2022/10/07 03:49:03;;;;;;;13.13;11.90;;;3.00;99.90;;;;;;5011470;28;20089;-79
2022/10/07 03:51:30;;;;;;;13.00;11.88;;;3.00;99.90;;;;;;5017072;28;20115;-79
2022/10/07 03:53:58;;;;;;;13.52;12.32;;;3.00;99.90;;;;;;5011551;28;20058;-79
2022/10/07 03:56:29;;;;;;;15.52;11.90;;;3.10;99.90;;;;;;4987456;28;20305;-78
2022/10/07 03:58:55;;;;;;;14.27;10.93;;;3.20;99.90;;;;;;4985728;28;20518;-79
2022/10/07 04:01:23;;;;;;;15.38;11.55;;;3.30;99.90;;;;;;4988822;28;20128;-79
2022/10/07 04:03:55;;;;;;;20.20;11.30;;;3.50;99.90;;;;;;4986890;28;20073;-80
2022/10/07 04:06:23;;;;;;;21.08;11.25;;;3.60;99.90;;;;;;4977804;28;20045;-78
2022/10/07 04:08:55;;;;;;;18.02;11.48;;;3.60;99.90;;;;;;4992847;28;20073;-79
2022/10/07 04:11:23;;;;;;;16.48;11.00;;;3.60;99.90;;;;;;5020368;28;20048;-78
2022/10/07 04:13:52;;;;;;;13.93;11.00;;;3.60;99.90;;;;;;4985438;28;20081;-78
2022/10/07 04:16:24;;;;;;;18.50;10.93;;;3.60;99.90;;;;;;4988559;28;20065;-78
2022/10/07 04:18:54;;;;;;;18.33;11.77;;;3.60;99.90;;;;;;5003854;28;20395;-79
2022/10/07 04:21:22;;;;;;;19.95;12.73;;;3.70;99.90;;;;;;4987006;28;20049;-79
2022/10/07 04:23:50;;;;;;;27.20;15.77;;;3.80;99.90;;;;;;4999960;28;20046;-78
2022/10/07 04:26:17;;;;;;;29.00;16.90;;;3.80;99.90;;;;;;4985713;28;20073;-78
2022/10/07 04:28:47;;;;;;;23.38;14.38;;;3.90;99.90;;;;;;4987223;28;20049;-79
2022/10/07 04:31:18;;;;;;;24.63;13.40;;;4.00;99.90;;;;;;4988344;28;20132;-78
2022/10/07 04:33:50;;;;;;;20.17;13.52;;;4.10;99.90;;;;;;4985058;28;20084;-78
2022/10/07 04:36:26;;;;;;;29.55;11.98;;;4.10;99.90;;;;;;4974341;28;20037;-80
2022/10/07 04:39:01;;;;;;;27.10;13.00;;;4.00;99.90;;;;;;4982780;28;20152;-78
2022/10/07 04:41:32;;;;;;;23.23;12.70;;;3.90;99.90;;;;;;4972577;28;20050;-78
2022/10/07 04:44:00;;;;;;;26.70;14.35;;;3.80;99.90;;;;;;4984178;28;20096;-79
2022/10/07 04:46:31;;;;;;;26.92;14.63;;;3.70;99.90;;;;;;4981043;28;20099;-78
2022/10/07 04:49:04;;;;;;;22.20;13.60;;;3.70;99.90;;;;;;4979200;28;20971;-78
2022/10/07 04:51:30;;;;;;;22.08;13.35;;;3.60;99.90;;;;;;5004891;28;20065;-77
2022/10/07 04:53:59;;;;;;;19.70;12.85;;;3.60;99.90;;;;;;4983748;28;20556;-78
2022/10/07 04:56:38;;;;;;;24.30;13.45;;;3.60;99.90;;;;;;4980024;28;20182;-78
2022/10/07 04:59:07;;;;;;;29.42;14.38;;;3.50;99.90;;;;;;4981449;28;20137;-77
2022/10/07 05:01:35;;;;;;;24.63;13.45;;;3.50;99.90;;;;;;4987186;28;20042;-77
2022/10/07 05:04:02;;;;;;;14.63;12.73;;;3.60;99.90;;;;;;4984000;28;20053;-78
2022/10/07 05:06:31;;;;;;;21.52;12.27;;;3.70;99.90;;;;;;5001294;28;20065;-78
2022/10/07 05:08:58;;;;;;;25.95;12.73;;;3.70;99.90;;;;;;4984196;28;20453;-78
2022/10/07 05:11:25;;;;;;;26.55;11.30;;;3.80;99.90;;;;;;4983552;28;20037;-78
2022/10/07 05:14:00;;;;;;;22.88;12.18;;;3.90;99.90;;;;;;4999607;28;20078;-78
2022/10/07 05:16:28;;;;;;;20.35;12.60;;;3.90;99.90;;;;;;4979568;28;20383;-78
2022/10/07 05:18:59;;;;;;;16.10;10.85;;;4.00;99.90;;;;;;4984752;28;20490;-78
2022/10/07 05:21:26;;;;;;;17.83;11.23;;;4.00;99.90;;;;;;4983144;28;20038;-77
2022/10/07 05:23:53;;;;;;;17.20;10.27;;;4.10;99.90;;;;;;4982217;28;20470;-78
2022/10/07 05:26:24;;;;;;;25.08;10.98;;;4.20;99.90;;;;;;4982500;28;20048;-77
2022/10/07 05:28:55;;;;;;;26.50;9.85;;;4.20;99.90;;;;;;5002182;28;20054;-78
2022/10/07 05:31:29;;;;;;;25.35;11.45;;;4.20;99.90;;;;;;4984215;28;20038;-78
2022/10/07 05:33:59;;;;;;;28.05;10.07;;;4.20;99.90;;;;;;4995687;28;20038;-78
2022/10/07 05:36:27;;;;;;;20.95;9.00;;;4.20;99.90;;;;;;4999282;28;20092;-78
2022/10/07 05:38:57;;;;;;;25.33;9.55;;;4.10;99.90;;;;;;4994896;28;20692;-78
2022/10/07 05:41:28;;;;;;;29.73;10.65;;;4.20;99.90;;;;;;4977168;28;20038;-79
2022/10/07 05:43:58;;;;;;;24.17;12.38;;;4.30;99.90;;;;;;4980773;28;20050;-78
2022/10/07 05:46:26;;;;;;;30.75;12.38;;;4.30;99.90;;;;;;4981666;28;20039;-78
2022/10/07 05:48:56;;;;;;;24.25;12.77;;;4.30;99.90;;;;;;4990162;28;20099;-77
2022/10/07 05:51:27;;;;;;;32.55;14.13;;;4.40;99.90;;;;;;4978636;28;20053;-78
2022/10/07 05:53:56;;;;;;;36.13;16.55;;;4.40;99.90;;;;;;4981318;28;20046;-78
2022/10/07 05:56:29;;;;;;;26.45;15.48;;;4.40;99.90;;;;;;4983955;28;20034;-77
2022/10/07 05:58:56;;;;;;;30.17;13.98;;;4.40;99.90;;;;;;4969330;28;20419;-78
2022/10/07 06:01:26;;;;;;;32.45;12.73;;;4.40;99.90;;;;;;4982438;28;20077;-78
2022/10/07 06:03:58;;;;;;;22.17;11.82;;;4.40;99.90;;;;;;4984367;28;20038;-79
2022/10/07 06:06:30;;;;;;;30.08;12.98;;;4.40;99.90;;;;;;4985389;28;20711;-79
2022/10/07 06:14:33;;;;;;;18.52;10.25;;;4.20;99.90;;;;;;4989319;28;20046;-79
2022/10/07 06:17:00;;;;;;;16.63;10.38;;;4.30;99.90;;;;;;4983981;28;20536;-79
2022/10/07 06:19:28;;;;;;;25.30;11.45;;;4.30;99.90;;;;;;4966799;28;20042;-80
2022/10/07 06:21:58;;;;;;;17.85;12.07;;;4.30;99.90;;;;;;4969116;28;20652;-80
2022/10/07 06:24:26;;;;;;;26.25;13.35;;;4.50;99.90;;;;;;5002905;28;20065;-79
2022/10/07 06:26:56;;;;;;;22.92;13.88;;;4.70;99.90;;;;;;5000257;28;20414;-79
2022/10/07 06:29:23;;;;;;;26.05;12.68;;;4.80;99.90;;;;;;4970189;28;20107;-79
2022/10/07 06:31:50;;;;;;;27.92;12.27;;;4.80;99.90;;;;;;4963093;28;20201;-80
2022/10/07 06:34:18;;;;;;;21.00;12.05;;;4.70;99.90;;;;;;4968309;28;20072;-80
2022/10/07 06:36:45;;;;;;;23.38;12.27;;;4.70;99.90;;;;;;4985363;28;20511;-79
2022/10/07 06:39:12;;;;;;;22.55;11.48;;;4.80;99.90;;;;;;4968581;28;20097;-78
2022/10/07 06:41:41;;;;;;;23.83;11.07;;;4.80;99.90;;;;;;5000054;28;20046;-78
2022/10/07 06:44:25;;;;;;;22.73;10.40;;;4.80;99.90;;;;;;4971123;28;20123;-80
2022/10/07 06:46:52;;;;;;;18.58;10.30;;;4.90;99.90;;;;;;4984578;28;20045;-79
2022/10/07 06:49:19;;;;;;;24.38;12.27;;;4.80;99.90;;;;;;4985462;28;20124;-80
2022/10/07 06:51:47;;;;;;;29.63;15.35;;;5.00;99.90;;;;;;5004853;28;20685;-80
2022/10/07 06:54:14;;;;;;;35.42;17.88;;;5.20;99.90;;;;;;4976220;28;20046;-79
2022/10/07 06:56:41;;;;;;;26.58;15.20;;;5.40;99.90;;;;;;4978013;28;20054;-79
2022/10/07 06:59:08;;;;;;;21.02;14.27;;;5.40;99.90;;;;;;5018609;28;20065;-78
2022/10/07 07:01:46;;;;;;;25.35;14.32;;;5.40;99.90;;;;;;4996618;28;20042;-79
2022/10/07 07:04:14;;;;;;;23.85;13.68;;;5.50;99.90;;;;;;4992068;28;20038;-79
2022/10/07 07:06:41;;;;;;;27.75;13.68;;;5.60;99.90;;;;;;4991808;28;20053;-79
2022/10/07 07:09:08;;;;;;;21.30;13.25;;;5.80;99.90;;;;;;4987861;28;20057;-78
2022/10/07 07:11:43;;;;;;;23.92;12.45;;;5.80;99.90;;;;;;5003307;28;20125;-79
2022/10/07 07:14:20;;;;;;;25.70;10.25;;;5.90;99.90;;;;;;4972108;28;20896;-78
2022/10/07 07:16:59;;;;;;;16.27;9.70;;;6.00;99.90;;;;;;4974507;28;20553;-79
2022/10/07 07:19:26;;;;;;;24.33;10.60;;;6.10;99.90;;;;;;5001796;28;20572;-78
2022/10/07 07:21:55;;;;;;;23.60;8.35;;;6.30;99.90;;;;;;4992000;28;20053;-79
2022/10/07 07:24:23;;;;;;;19.58;8.80;;;6.50;99.90;;;;;;4990941;28;20454;-79
2022/10/07 07:26:51;;;;;;;15.07;8.65;;;6.70;99.90;;;;;;5006826;28;20495;-83
2022/10/07 07:29:19;;;;;;;44.80;25.85;;;6.80;99.90;;;;;;4991724;28;20088;-79
2022/10/07 07:31:50;;;;;;;49.10;30.35;;;7.00;99.90;;;;;;4982826;28;20179;-78
2022/10/07 07:34:20;;;;;;;41.22;23.23;;;7.30;99.90;;;;;;5006705;28;20677;-78
2022/10/07 07:36:52;;;;;;;15.68;12.85;;;7.50;99.90;;;;;;4992618;28;20057;-78
2022/10/07 07:39:22;;;;;;;14.68;9.55;;;7.60;99.90;;;;;;4990199;28;20050;-79
2022/10/07 07:41:55;;;;;;;14.52;7.47;;;7.80;99.90;;;;;;4990114;28;20045;-79
2022/10/07 07:44:23;;;;;;;13.07;7.82;;;8.10;99.90;;;;;;4982711;28;20077;-79
2022/10/07 07:46:54;;;;;;;20.98;8.38;;;8.30;99.90;;;;;;4990989;28;20563;-80
2022/10/07 07:49:23;;;;;;;12.75;7.45;;;8.50;99.90;;;;;;5002481;28;20080;-79
2022/10/07 07:51:50;;;;;;;13.00;7.72;;;8.70;99.90;;;;;;4990658;28;20038;-78
2022/10/07 07:54:32;;;;;;;12.00;8.38;;;8.90;99.90;;;;;;5002053;28;20500;-79
2022/10/07 07:57:02;;;;;;;10.43;8.77;;;9.30;99.90;;;;;;4988144;28;20049;-79
2022/10/07 07:59:31;;;;;;;12.30;10.10;;;9.70;99.90;;;;;;5016955;28;20049;-78
2022/10/07 08:01:59;;;;;;;15.38;13.18;;;10.00;99.90;;;;;;5005008;28;20132;-79
2022/10/07 08:04:26;;;;;;;16.45;14.80;;;10.50;99.90;;;;;;4989599;28;20073;-78
2022/10/07 08:06:54;;;;;;;20.13;18.02;;;10.80;99.90;;;;;;4991414;28;20046;-79
2022/10/07 08:09:23;;;;;;;19.30;17.85;;;11.10;99.90;;;;;;4988641;28;20072;-79
2022/10/07 08:11:49;;;;;;;19.88;18.23;;;11.40;99.90;;;;;;5003170;28;20143;-79
2022/10/07 08:14:17;;;;;;;21.30;19.20;;;11.70;99.90;;;;;;4981350;28;20081;-79
2022/10/07 08:16:46;;;;;;;22.27;20.27;;;12.20;99.90;;;;;;5002317;28;20038;-78
2022/10/07 08:19:12;;;;;;;21.42;19.05;;;12.40;99.90;;;;;;4989801;28;20558;-79
2022/10/07 08:21:39;;;;;;;21.38;19.45;;;12.70;99.90;;;;;;5023374;28;20053;-78
2022/10/07 08:24:13;;;;;;;21.00;19.20;;;12.90;99.90;;;;;;4990128;28;20037;-78
2022/10/07 08:26:40;;;;;;;20.88;19.30;;;13.20;99.90;;;;;;4988347;28;20448;-78
2022/10/07 08:29:10;;;;;;;21.83;19.63;;;13.50;99.90;;;;;;4988043;28;20046;-78
2022/10/07 08:31:37;;;;;;;22.02;20.10;;;13.90;99.90;;;;;;4989019;28;20164;-79
2022/10/07 08:34:05;;;;;;;21.88;19.80;;;14.10;99.90;;;;;;4989462;28;20141;-80
2022/10/07 08:36:32;;;;;;;21.02;19.35;;;14.50;99.90;;;;;;4990069;28;20046;-79
2022/10/07 08:39:00;;;;;;;21.98;20.10;;;14.50;99.90;;;;;;5007682;28;20041;-78
2022/10/07 08:41:35;;;;;;;22.83;20.63;;;14.50;99.90;;;;;;5005784;28;20041;-76
2022/10/07 08:44:16;;;;;;;21.67;19.80;;;14.70;99.90;;;;;;4988743;28;20052;-77
2022/10/07 08:46:52;;;;;;;22.30;20.08;;;14.80;99.90;;;;;;4994651;28;20069;-78
2022/10/07 08:49:38;;;;;;;22.58;20.67;;;14.80;99.90;;;;;;5005248;28;20050;-77
2022/10/07 08:52:32;;;;;;;22.55;20.80;;;14.70;99.90;;;;;;4987381;28;20446;-77
2022/10/07 08:55:03;;;;;;;22.92;20.80;;;14.80;99.90;;;;;;5000526;28;20660;-78
2022/10/07 08:57:41;;;;;;;23.08;21.25;;;14.90;99.90;;;;;;5004984;28;20042;-78
2022/10/07 09:00:12;;;;;;;23.90;21.80;;;15.10;99.90;;;;;;4972196;28;20050;-77
2022/10/07 09:03:00;;;;;;;23.35;21.63;;;15.30;99.90;;;;;;4987906;28;20048;-77
2022/10/07 09:05:33;;;;;;;23.58;21.38;;;15.50;99.90;;;;;;5019336;28;20050;-77
2022/10/07 09:08:05;;;;;;;23.70;21.75;;;15.60;99.90;;;;;;4987318;28;20568;-77
2022/10/07 09:10:38;;;;;;;24.20;21.95;;;15.70;99.90;;;;;;4980946;28;20042;-78
2022/10/07 09:13:19;;;;;;;23.55;21.42;;;15.60;99.90;;;;;;4988098;28;20050;-77
2022/10/07 09:16:10;;;;;;;23.17;21.35;;;15.60;99.90;;;;;;5003015;28;20053;-77
2022/10/07 09:18:40;;;;;;;24.50;22.35;;;15.70;99.90;;;;;;5015160;28;20050;-77
2022/10/07 09:21:15;;;;;;;24.08;21.73;;;16.00;99.90;;;;;;5003148;28;20080;-77
2022/10/07 09:23:43;;;;;;;24.45;21.88;;;16.10;99.90;;;;;;4992330;28;20076;-79
2022/10/07 09:26:12;;;;;;;23.90;21.83;;;16.10;99.90;;;;;;4989697;28;20461;-76
2022/10/07 09:28:39;;;;;;;23.08;21.15;;;16.00;99.90;;;;;;4991340;28;20042;-78
2022/10/07 09:31:07;;;;;;;23.67;21.83;;;15.90;99.90;;;;;;5005217;28;20466;-77
2022/10/07 09:33:43;;;;;;;24.30;22.33;;;15.80;99.90;;;;;;4983863;28;20104;-77
2022/10/07 09:36:12;;;;;;;23.80;21.90;;;16.00;99.90;;;;;;5014520;28;20489;-81
2022/10/07 09:38:43;;;;;;;23.70;21.58;;;16.10;99.90;;;;;;5002963;28;20049;-78
2022/10/07 09:41:21;;;;;;;23.05;21.02;;;16.00;99.90;;;;;;4985560;28;20034;-76
2022/10/07 09:43:48;;;;;;;23.77;21.58;;;16.00;99.90;;;;;;4971744;28;20042;-77
2022/10/07 09:46:33;;;;;;;24.83;22.23;;;16.20;99.90;;;;;;4971306;28;20571;-77
2022/10/07 09:49:04;;;;;;;27.60;21.88;;;16.10;99.90;;;;;;4973608;28;20050;-77
2022/10/07 09:51:34;;;;;;;23.98;22.00;;;16.30;99.90;;;;;;4988241;28;20048;-77
2022/10/07 09:54:15;;;;;;;24.35;21.92;;;16.20;99.90;;;;;;4986752;28;20048;-78
2022/10/07 09:56:44;;;;;;;23.83;21.83;;;16.40;99.90;;;;;;5003374;28;20554;-77
2022/10/07 09:59:24;;;;;;;24.15;22.02;;;16.20;99.90;;;;;;4995150;28;20037;-76
2022/10/07 10:01:55;;;;;;;24.52;21.90;;;16.20;99.90;;;;;;4984795;28;20038;-77
2022/10/07 10:04:32;;;;;;;25.85;23.77;;;15.90;99.90;;;;;;4995011;28;20136;-77
2022/10/07 10:07:14;;;;;;;27.92;25.23;;;15.90;99.90;;;;;;5003423;28;20045;-77
2022/10/07 10:09:49;;;;;;;24.67;22.55;;;16.00;99.90;;;;;;4987621;28;20678;-76
2022/10/07 10:12:19;;;;;;;24.17;22.42;;;16.10;99.90;;;;;;5002700;28;20133;-77
2022/10/07 10:14:58;;;;;;;24.08;21.95;;;16.10;99.90;;;;;;5002304;28;20052;-76
2022/10/07 10:17:33;;;;;;;23.27;21.50;;;16.10;99.90;;;;;;5015011;28;20042;-76
2022/10/07 10:20:20;;;;;;;25.15;22.75;;;16.20;99.90;;;;;;5004387;28;20042;-77
2022/10/07 10:22:46;;;;;;;24.38;22.00;;;16.20;99.90;;;;;;5003353;28;20545;-76
2022/10/07 10:28:28;;;;;;;23.83;21.67;;;16.40;99.90;;;;;;5003909;28;20048;-76
2022/10/07 10:31:05;;;;;;;23.73;21.63;;;16.60;99.90;;;;;;5004055;28;20084;-76
2022/10/07 10:33:46;;;;;;;25.02;22.50;;;16.60;99.90;;;;;;4998201;28;20491;-76
2022/10/07 10:36:22;;;;;;;25.55;23.08;;;16.50;99.90;;;;;;4985977;28;20073;-76
2022/10/07 10:39:00;;;;;;;24.02;22.33;;;16.40;99.90;;;;;;5000734;28;20054;-76
2022/10/07 10:41:40;;;;;;;23.58;21.55;;;16.30;99.90;;;;;;5004264;28;20534;-76
2022/10/07 10:44:33;;;;;;;23.17;21.23;;;16.50;99.90;;;;;;5003198;28;20042;-76
2022/10/07 10:47:12;;;;;;;24.95;22.63;;;16.50;99.90;;;;;;5004285;28;20133;-76
2022/10/07 10:50:34;;;;;;;24.20;22.13;;;16.70;99.90;;;;;;4987632;28;20049;-76
2022/10/07 10:53:28;;;;;;;23.75;21.75;;;16.60;99.90;;;;;;4945745;28;20050;-75
2022/10/07 10:56:14;;;;;;;26.17;23.83;;;16.60;99.90;;;;;;5000151;28;20242;-77
2022/10/07 10:59:08;;;;;;;25.02;22.58;;;16.90;99.90;;;;;;5003277;28;20053;-78
2022/10/07 11:01:40;;;;;;;26.20;23.85;;;16.80;99.90;;;;;;5004503;28;20074;-77
2022/10/07 11:04:10;;;;;;;28.23;25.27;;;16.70;99.90;;;;;;4987220;28;20086;-76
2022/10/07 11:06:40;;;;;;;26.02;23.40;;;16.80;99.90;;;;;;5004650;28;20165;-75
2022/10/07 11:09:15;;;;;;;24.83;22.60;;;16.60;99.90;;;;;;5004752;28;20057;-77
2022/10/07 11:11:44;;;;;;;24.52;22.42;;;16.70;99.90;;;;;;4991724;28;20045;-76
2022/10/07 11:14:19;;;;;;;24.70;22.70;;;16.80;99.90;;;;;;5016407;28;20660;-78
2022/10/07 11:16:54;;;;;;;24.80;22.33;;;16.80;99.90;;;;;;5015026;28;20054;-77
2022/10/07 11:19:29;;;;;;;24.73;22.75;;;16.90;99.90;;;;;;5006384;28;20034;-78
2022/10/07 11:21:58;;;;;;;23.65;21.75;;;16.80;99.90;;;;;;5001256;28;20037;-76
2022/10/07 11:24:35;;;;;;;24.73;22.42;;;16.60;99.90;;;;;;4993421;28;20317;-76
2022/10/07 11:27:26;;;;;;;25.60;22.95;;;16.60;99.90;;;;;;5007182;28;20613;-76
2022/10/07 11:30:15;;;;;;;23.60;21.55;;;16.70;99.90;;;;;;4988995;28;20045;-76
2022/10/07 11:32:56;;;;;;;25.15;23.05;;;16.80;99.90;;;;;;5003478;28;20049;-78
2022/10/07 11:35:34;;;;;;;24.23;22.30;;;16.80;99.90;;;;;;5005270;28;20577;-77
2022/10/07 11:38:13;;;;;;;25.25;22.85;;;16.70;99.90;;;;;;4986247;28;20147;-78
2022/10/07 11:40:42;;;;;;;24.75;22.60;;;16.70;99.90;;;;;;4999931;28;20054;-79
2022/10/07 11:43:32;;;;;;;24.50;22.38;;;17.00;99.90;;;;;;5007287;28;20327;-76
2022/10/07 11:46:06;;;;;;;25.08;22.77;;;17.30;99.90;;;;;;4989678;28;20434;-77
2022/10/07 11:48:42;;;;;;;24.92;22.42;;;17.10;99.90;;;;;;4988887;28;20207;-76
2022/10/07 11:51:23;;;;;;;24.60;22.42;;;17.10;99.90;;;;;;5006914;28;20052;-78
2022/10/07 11:53:52;;;;;;;24.98;22.83;;;17.20;99.90;;;;;;4990255;28;20050;-80
2022/10/07 11:56:25;;;;;;;24.52;22.30;;;17.40;99.90;;;;;;4975557;28;20136;-78
2022/10/07 11:59:01;;;;;;;24.08;22.13;;;17.30;99.90;;;;;;4989486;28;20053;-78
2022/10/07 12:01:40;;;;;;;23.98;22.10;;;17.00;99.90;;;;;;4982356;28;20099;-78
2022/10/07 12:04:23;;;;;;;23.98;21.98;;;17.10;99.90;;;;;;4999028;28;20170;-76
2022/10/07 12:07:28;;;;;;;25.08;22.75;;;17.20;99.90;;;;;;5005489;28;20042;-76
2022/10/07 12:09:58;;;;;;;24.27;21.98;;;17.40;99.90;;;;;;4975003;28;20056;-76
2022/10/07 12:12:45;;;;;;;23.30;21.60;;;17.60;99.90;;;;;;4997611;28;20331;-76
2022/10/07 12:15:26;;;;;;;23.88;21.63;;;17.80;99.90;;;;;;4987349;28;20096;-76
2022/10/07 12:18:05;;;;;;;23.85;21.88;;;18.00;99.90;;;;;;4990808;28;20133;-78
2022/10/07 12:20:34;;;;;;;24.58;22.38;;;17.70;99.90;;;;;;4990332;28;20144;-77
2022/10/07 12:23:15;;;;;;;24.23;22.10;;;17.40;99.90;;;;;;5005409;28;20134;-80
2022/10/07 12:25:57;;;;;;;23.25;21.40;;;17.30;99.90;;;;;;5013801;28;20053;-80
2022/10/07 12:28:40;;;;;;;23.60;21.70;;;17.30;99.90;;;;;;4991141;28;20054;-77
2022/10/07 12:31:30;;;;;;;24.10;21.83;;;17.50;99.90;;;;;;5007251;28;20041;-79
2022/10/07 12:34:08;;;;;;;24.40;22.27;;;17.40;99.90;;;;;;4988625;28;20088;-78
2022/10/07 12:36:39;;;;;;;24.50;22.30;;;17.50;99.90;;;;;;5008758;28;20073;-77
2022/10/07 12:39:08;;;;;;;23.67;21.83;;;17.50;99.90;;;;;;4983343;28;20122;-79
2022/10/07 12:41:35;;;;;;;23.83;22.02;;;17.70;99.90;;;;;;4997807;28;20038;-77
2022/10/07 12:44:11;;;;;;;23.58;21.63;;;17.80;99.90;;;;;;5020501;28;20569;-77
2022/10/07 12:47:10;;;;;;;24.73;22.60;;;17.80;99.90;;;;;;5007334;28;20046;-77
2022/10/07 12:50:01;;;;;;;26.13;23.50;;;17.90;99.90;;;;;;4987704;28;20049;-78
2022/10/07 12:52:45;;;;;;;132.77;89.30;;;17.70;99.90;;;;;;5023467;28;20083;-81
2022/10/07 12:55:18;;;;;;;801.20;529.97;;;17.70;99.90;;;;;;5008018;28;20044;-78
2022/10/07 12:57:53;;;;;;;116.00;68.85;;;17.70;99.90;;;;;;5008039;28;20137;-76
2022/10/07 13:00:23;;;;;;;;;;;17.80;99.90;;;;;;5002148;28;20148;-79
2022/10/07 13:03:08;;;;;;;24.95;22.92;;;17.90;99.90;;;;;;4987563;28;20336;-79
2022/10/07 13:06:26;;;;;;;23.95;21.48;;;17.90;99.90;;;;;;5002109;28;20610;-77
2022/10/07 13:09:12;;;;;;;23.92;21.83;;;17.80;99.90;;;;;;4950437;28;20050;-77
2022/10/07 13:12:00;;;;;;;23.73;21.70;;;17.80;99.90;;;;;;4996323;28;20264;-78
2022/10/07 13:14:48;;;;;;;23.48;21.40;;;17.80;99.90;;;;;;5000794;28;20089;-77